Robert Jorgensen

Scout - FC Copenhagen
20 Nov 2027
Saturday
Process

Personality

Adaptability (6) Ambition (14) Controversy (2) Loyalty (14) Pressure (14) Professionalism (8) Sportsmanship (7) Temperament (9)

Profile

Coaching Style Democratic
License Continental Pro
Determination 7
Man Management 13
Motivating 5
Discipline 9
Job Satisfaction
100%
Fatigue
0%
Role Scout
Wage 99.1K p/w
Contract 14.03.2028

Performance

Behaviour Good
Training Effectiveness
39%
Player Development
60%
Injury Prevention
50%
Tactical Implementation
60%

Recent Events

Attended a recruitment meeting now
Recommended a transfer target now
Recommended a transfer target now
Recommended a transfer target now
Recommended a transfer target 7d ago
Assessed a player 7d ago
Assessed a player 7d ago
Assessed a player 7d ago

Currently Monitoring

142
Player Club Status Ability Confidence Watched Last Observed Latest Vote
Predrag Rajković Al-Nassr Active 141 / 143 40% 5 16.11.2027 -
Agustín Rossi Flamengo Active 131 / 135 40% 2 16.11.2027 -
Senne Lammens Manchester United Active 161 / 159 40% 1 16.11.2027 -
Matt Freese New York City Active 136 / 133 40% 4 12.11.2027 -
Andriy Lunin Real Madrid Active 161 / 158 40% 5 12.11.2027 -
Christian Walton Norwich City Active 134 / 134 40% 3 12.11.2027 -
Đorđe Petrović Bournemouth Active 152 / 157 40% 4 11.11.2027 -
Matheus Cunha Cruzeiro Active 131 / 128 40% 3 11.11.2027 -
Gabriel Brazão Santos Active 132 / 139 40% 3 10.11.2027 -
Alex Palmer Ipswich Town Active 134 / 133 40% 4 10.11.2027 -
Egil Selvik Watford Active 136 / 133 40% 1 10.11.2027 -
Léo Jardim Vasco da Gama Active 138 / 143 40% 3 03.11.2027 -
Anthony Racioppi Grasshopper Active 131 / 135 40% 1 01.11.2027 -
Lukáš Horníček Burnley Active 151 / 153 40% 4 30.10.2027 -
Manuel Roffo Hajduk Split Active 132 / 133 40% 2 29.10.2027 -
Josh Keeley Luton Town Active 138 / 135 40% 2 29.10.2027 -
Christos Mandas Lazio Active 152 / 144 40% 6 26.10.2027 -
Elías Rafn Ólafsson FC Midtjylland Active 131 / 130 40% 2 25.10.2027 -
Zion Suzuki Aston Villa Active 152 / 148 40% 3 25.10.2027 -
Mads Hermansen West Ham United Active 149 / 144 40% 3 21.10.2027 -
Giorgi Mamardashvili Sunderland Active 167 / 163 40% 4 21.10.2027 -
Michael Cooper Sheffield United Active 136 / 132 40% 2 17.10.2027 -
Iván Villar Celta Active 133 / 133 40% 2 17.10.2027 -
Anthony Patterson Wrexham Active 137 / 137 40% 5 11.10.2027 -
Daniel Iversen Preston Active 137 / 134 40% 3 11.10.2027 -
Oliver Dovin Middlesbrough Active 135 / 136 40% 3 09.10.2027 -
Kostantis Tzolakis Hull City Active 154 / 153 40% 1 08.10.2027 -
Sam Tickle Maccabi Tel Aviv Active 138 / 140 40% 1 08.10.2027 -
Carl Rushworth Coventry City Active 145 / 149 40% 1 06.10.2027 -
Alex Meret Napoli Active 155 / 155 40% 1 06.10.2027 -
Radek Vítek Middlesbrough Active 148 / 144 40% 4 02.10.2027 -
Hugo Souza Corinthians Active 139 / 140 40% 3 02.10.2027 -
Hákon Rafn Valdimarsson Newcastle United Active 146 / 148 40% 2 30.09.2027 -
John Victor Nottingham Forest Active 137 / 138 40% 1 26.09.2027 -
Mike Maignan AC Milan Active 170 / 171 40% 2 22.09.2027 -
Aaron Ramsdale Southampton Active 155 / 149 40% 1 19.09.2027 -
Bento Lokomotiv Moscow Active 145 / 144 40% 1 17.09.2027 -
Dean Henderson Crystal Palace Active 158 / 159 40% 1 09.09.2027 -
Kepa Arrizabalaga Arsenal Active 151 / 158 40% 1 04.09.2027 -
Jacob Widell Zetterström Derby County Active 132 / 131 40% 1 30.08.2027 -
Diego Enríquez Sporting Cristal Active 141 / 138 40% 3 17.08.2027 -
Bart Verbruggen Newcastle United Active 161 / 157 40% 1 17.08.2027 -
Zack Steffen Colorado Rapids Active 135 / 137 40% 1 17.08.2027 -
Oliver Christensen Fiorentina Active 133 / 135 40% 1 03.08.2027 -
Adrian Šemper Al-Fateh Active 135 / 136 40% 1 03.08.2027 -
Gift Links AGF Report Ready 134 / 131 83% 1 28.06.2027 -
Tobias Bech AGF Report Ready 134 / 132 83% 1 01.06.2027 -
Jofre Torrents Ajax Active 124 / 131 40% 5 30.05.2027 -
Jonathan De Irastorza Levante Active 123 / 125 40% 1 30.05.2027 -
Mohammed Wakaso Hasaacas Active 99 / 104 40% 3 29.05.2027 -
Joel McGregor Swindon Town Active 92 / 95 40% 3 29.05.2027 -
Sascha Britschgi Catanzaro Active 115 / 127 40% 3 28.05.2027 -
Riley Owen Wycombe Wanderers Active 105 / 111 40% 3 28.05.2027 -
Maeson King Blackpool Active 110 / 114 40% 5 22.05.2027 -
Mattia Puzone Siracusa Active 99 / 107 40% 1 18.05.2027 -
Simone Kosijer Triestina Active 97 / 104 40% 1 18.05.2027 -
Riquelme Thompson-Jones Shrewsbury Town Active 105 / 113 40% 6 15.05.2027 -
Valentin Atangana Al-Ahli Active 134 / 131 40% 1 04.05.2027 -
Pietro Reggiori Pro Patria Active 93 / 94 40% 1 04.05.2027 -
Caleb Yirenkyi Coventry City Active 137 / 136 40% 5 02.05.2027 -
Davide Bartesaghi AC Milan Active 133 / 134 40% 1 28.04.2027 -
Lucas Jetten Cambuur Active 111 / 120 40% 2 26.04.2027 -
Bakary Haïdara Hearts of Oak Active 103 / 111 40% 2 26.04.2027 -
Sam Curtis Swindon Town Active 99 / 103 40% 4 24.04.2027 -
Saman Taremi Padideh Active 101 / 117 40% 3 24.04.2027 -
Dylan Lawlor Cardiff City Active 118 / 119 40% 5 23.04.2027 -
Milad Jahanbakhsh Rah Ahan Active 97 / 102 40% 3 22.04.2027 -
Gonçalo Oliveira Benfica Active 111 / 113 40% 2 18.04.2027 -
Taras Mykhavko Dynamo Kyiv Active 122 / 124 40% 3 16.04.2027 -
Tiago Freitas Benfica Active 109 / 111 40% 2 11.04.2027 -
Martim Cunha Porto Active 98 / 104 40% 2 11.04.2027 -
Enzo Cardozo Virtus Entella Active 108 / 114 40% 1 10.04.2027 -
Lucas Høgsberg Paris Saint-Germain Active 133 / 143 40% 2 05.04.2027 -
Sabil Hansen Randers Active 107 / 114 40% 1 02.04.2027 -
Daniel Vernattus Metalist Active 92 / 100 40% 1 29.03.2027 -
Gladson Sulemana Liberty Professionals Active 88 / 98 40% 1 29.03.2027 -
Andrey Ivlev Nizhniy Novgorod Active 107 / 112 40% 1 24.03.2027 -
Hjalte Bidstrup Aalborg Active 110 / 114 40% 2 19.03.2027 -
Leandro Martins Benfica Active 96 / 93 40% 2 11.03.2027 -
Zoltan Bese Haladas Active 116 / 122 40% 1 08.03.2027 -
Leandrinho Sharjah Active 107 / 125 40% 1 06.03.2027 -
Leonardo Mendicino Bari Active 113 / 126 40% 1 04.03.2027 -
Kristian Arnstad AGF Active 123 / 128 76% 1 25.01.2027 Approve
James Gomez OB Active 118 / 118 76% 1 11.01.2027 Approve
Morten Frendrup Genoa Lost 146 / 145 40% 5 07.01.2027 -
Gabriel Gudmundsson Leeds United Active 139 / 145 40% 2 07.01.2027 -
Ethan Galbraith Swansea City Active 137 / 136 40% 1 07.01.2027 -
Camilo Durán Bloemfontein Celtic Active 125 / 125 40% 1 07.01.2027 -
Neco Williams Nottingham Forest Active 144 / 138 40% 1 07.01.2027 -
Soungoutou Magassa West Ham United Active 133 / 137 40% 1 07.01.2027 -
El Hadji Malick Diouf Brentford Active 139 / 142 40% 2 01.01.2027 -
Odilon Kossounou Atalanta Active 147 / 148 40% 1 01.01.2027 -
Kasey McAteer Ipswich Town Active 127 / 132 40% 1 31.12.2026 -
Nemanja Radonjić Crvena Zvezda Active 125 / 129 40% 1 31.12.2026 -
Noah Sadiki Sunderland Active 139 / 145 40% 3 27.12.2026 -
Ethan Ampadu Leeds United Active 150 / 141 40% 1 27.12.2026 -
André Wolverhampton Active 148 / 146 40% 1 27.12.2026 -
Marcus Holmgren Pedersen Olympiacos Active 136 / 137 40% 2 24.12.2026 -
Jaka Bijol Leeds United Active 143 / 141 40% 1 24.12.2026 -
Milan van Ewijk Coventry City Active 132 / 129 40% 2 23.12.2026 -
Álex Valle Como Active 139 / 136 40% 1 23.12.2026 -
Isak Hien Atalanta Active 142 / 143 40% 1 23.12.2026 -
António Silva Bournemouth Active 145 / 144 40% 2 19.12.2026 -
Bobby Thomas Coventry City Active 138 / 137 40% 1 19.12.2026 -
Imrân Louza Watford Active 135 / 131 40% 1 17.12.2026 -
Nathan Collins Brentford Active 146 / 144 40% 1 17.12.2026 -
Tariq Lamptey Queens Park Rangers Active 137 / 133 40% 2 14.12.2026 -
Pedro Porro Tottenham Active 142 / 143 40% 1 14.12.2026 -
Yehor Yarmoliuk Brentford Active 148 / 149 40% 1 11.12.2026 -
Billy Gilmour Napoli Active 143 / 151 40% 1 11.12.2026 -
Lewis Hall Newcastle United Active 150 / 150 40% 1 07.12.2026 -
Tyrell Malacia Derby County Active 141 / 129 40% 2 06.12.2026 -
Dara O'Shea Ipswich Town Active 138 / 138 40% 1 06.12.2026 -
Brooke Norton-Cuffy Hull City Active 137 / 137 40% 1 04.12.2026 -
Florentino Luís Ipswich Town Active 143 / 136 40% 1 03.12.2026 -
Jacob Greaves Ipswich Town Active 137 / 136 40% 1 24.11.2026 -
Christian Krasnodar Active 126 / 140 40% 2 18.11.2026 -
Diego Costa Krasnodar Active 140 / 137 40% 2 18.11.2026 -
Fabian Rieder FC Augsburg Active 131 / 134 40% 3 17.11.2026 -
Álvaro Carreras Real Madrid Active 152 / 151 40% 1 12.11.2026 -
Mads Bech Sørensen FC Midtjylland Active 134 / 126 40% 2 08.11.2026 -
Adrian Dragusin CFR Cluj Active 149 / 142 40% 1 08.11.2026 -
Michal Sadílek Slavia Prague Active 136 / 129 40% 2 07.11.2026 -
Pedro Malheiro Al Wasl Active 147 / 143 40% 1 07.11.2026 -
Marc Pubill Atlético Madrid Active 139 / 147 40% 2 31.10.2026 -
Juan David Cabal Juventus Active 139 / 142 40% 1 31.10.2026 -
Lukáš Červ Viktoria Plzen Active 141 / 138 40% 2 29.10.2026 -
Matías Palacios Al Ain Active 139 / 133 40% 1 26.10.2026 -
Kings Kangwa Panathinaikos Active 126 / 135 40% 1 26.10.2026 -
David Zima Slavia Prague Active 125 / 132 40% 2 23.10.2026 -
Azzedine Ounahi Panathinaikos Active 141 / 146 40% 2 16.10.2026 -
Zaydou Youssouf Al-Fateh Active 128 / 126 40% 1 15.10.2026 -
Alexandr Chernikov Krasnodar Active 137 / 124 40% 1 15.10.2026 -
Gustavo Mantuan Zenit Active 131 / 132 40% 2 09.10.2026 -
Ehsan Beiranvand Padideh Active 144 / 134 40% 1 09.10.2026 -
Mohamed Simakan Al-Nassr Active 147 / 135 40% 1 08.10.2026 -
Mark Brink FC Nordsjaelland Active 124 / 124 76% 1 31.08.2026 Approve
Villum Berthelsen FC Nordsjaelland Active 113 / 118 76% 1 17.08.2026 Approve
Tijjani Reijnders Al-Qadisiyah Active 156 / 165 40% 2 05.08.2026 -
Fredrik Bjørkan Bodo/Glimt Active 123 / 130 40% 1 05.08.2026 -
Martin Erlić FC Midtjylland Active 126 / 126 40% 1 05.08.2026 -
Diego Rossi Monterrey Active 138 / 135 40% 1 02.08.2026 -